Time,TemperatureF,DewpointF,PressureIn,WindDirection,WindDirectionDegrees,WindSpeedMPH,WindSpeedGustMPH,Humidity,HourlyPrecipIn,Conditions,Clouds,dailyrainin,SoftwareType,DateUTC
2013-07-28 00:00:00,44.0,42.0,-100.00,WNW,289,3.0,6.0,93,0.00,,,-99.99,,2013-07-28 07:00:00,
2013-07-28 01:00:00,45.0,38.0,-100.00,WNW,301,5.0,7.0,76,0.00,,,-99.99,,2013-07-28 08:00:00,
2013-07-28 01:53:00,45.0,38.0,-100.00,WNW,301,5.0,7.0,76,0.00,,,-99.99,,2013-07-28 08:53:00,
2013-07-28 02:00:00,44.0,37.0,-100.00,WNW,290,5.0,7.0,77,0.00,,,-99.99,,2013-07-28 09:00:00,
2013-07-28 03:00:00,44.0,37.0,-100.00,WNW,299,6.0,8.0,76,0.00,,,-99.99,,2013-07-28 10:00:00,
2013-07-28 04:00:00,43.0,34.0,-100.00,WNW,302,6.0,12.0,69,0.00,,,-99.99,,2013-07-28 11:00:00,
2013-07-28 04:54:00,43.0,34.0,-100.00,WNW,302,6.0,12.0,69,0.00,,,-99.99,,2013-07-28 11:54:00,
2013-07-28 05:00:00,43.0,35.0,-100.00,WNW,293,7.0,15.0,72,0.00,,,-99.99,,2013-07-28 12:00:00,
2013-07-28 06:00:00,43.0,31.0,-100.00,WNW,300,6.0,9.0,63,0.00,,,-99.99,,2013-07-28 13:00:00,
2013-07-28 07:00:00,44.0,33.0,-100.00,WNW,301,7.0,8.0,65,0.00,,,-99.99,,2013-07-28 14:00:00,
2013-07-28 09:00:00,51.0,34.0,-100.00,WNW,290,6.0,8.0,53,0.00,,,-99.99,,2013-07-28 16:00:00,
2013-07-28 16:00:00,59.0,46.0,-100.00,West,280,2.0,8.0,61,0.00,,,-99.99,,2013-07-28 23:00:00,
2013-07-28 17:00:00,58.0,45.0,-100.00,WNW,282,2.0,8.0,63,0.00,,,-99.99,,2013-07-29 00:00:00,
2013-07-28 18:00:00,57.0,45.0,-100.00,West,280,2.0,5.0,65,0.00,,,-99.99,,2013-07-29 01:00:00,
2013-07-28 19:00:00,53.0,45.0,-100.00,West,281,1.0,6.0,75,0.00,,,-99.99,,2013-07-29 02:00:00,
2013-07-28 20:00:00,50.0,46.0,-100.00,West,278,2.0,5.0,85,0.00,,,-99.99,,2013-07-29 03:00:00,
2013-07-28 21:00:00,47.0,45.0,-100.00,West,281,2.0,3.0,91,0.00,,,-99.99,,2013-07-29 04:00:00,
2013-07-28 22:00:00,45.0,43.0,-100.00,WNW,285,3.0,3.0,93,0.00,,,-99.99,,2013-07-29 05:00:00,
2013-07-28 22:53:00,45.0,43.0,-100.00,WNW,285,3.0,3.0,93,0.00,,,-99.99,,2013-07-29 05:53:00,
2013-07-28 23:00:00,44.0,43.0,-100.00,West,281,3.0,3.0,96,0.00,,,-99.99,,2013-07-29 06:00:00,